Time;durP1;ratioP1;P1;durP2;ratioP2;P2;SDS_P1;SDS_P2;PMS_P1;PMS_P2;Temp;Humidity;BMP_temperature;BMP_pressure;BME280_temperature;BME280_humidity;BME280_pressure;Samples;Min_cycle;Max_cycle;Signal;HPM_P1;HPM_P2
2023/10/31 00:00:55;;;;;;;1.40;0.83;;;20.90;82.70;;;;;;4995402;28;20947;-85
2023/10/31 00:03:23;;;;;;;1.70;1.10;;;20.90;82.70;;;;;;4994408;28;20451;-85
2023/10/31 00:05:50;;;;;;;1.33;1.00;;;20.90;82.70;;;;;;4995583;28;20440;-85
2023/10/31 00:08:17;;;;;;;1.10;0.90;;;20.90;82.70;;;;;;4995578;28;20439;-85
2023/10/31 00:10:46;;;;;;;1.20;0.90;;;20.90;82.60;;;;;;4995453;28;20621;-85
2023/10/31 00:13:12;;;;;;;1.40;1.20;;;21.00;82.80;;;;;;4995830;28;20527;-85
2023/10/31 00:15:39;;;;;;;1.37;0.80;;;20.90;82.70;;;;;;5034138;28;20438;-85
2023/10/31 00:18:06;;;;;;;1.47;1.00;;;20.90;82.60;;;;;;5032703;28;20489;-86
2023/10/31 00:20:34;;;;;;;1.43;1.10;;;20.90;82.60;;;;;;5032957;28;20457;-85
2023/10/31 00:23:01;;;;;;;1.20;1.00;;;20.90;82.60;;;;;;5019307;28;20960;-85
2023/10/31 00:25:28;;;;;;;1.10;0.80;;;20.90;82.60;;;;;;5006114;28;20448;-85
2023/10/31 00:27:55;;;;;;;1.97;1.00;;;20.90;82.60;;;;;;4995129;28;20436;-85
2023/10/31 00:30:22;;;;;;;2.27;1.23;;;20.90;82.60;;;;;;5010629;28;20956;-85
2023/10/31 00:32:48;;;;;;;1.13;1.00;;;20.90;82.60;;;;;;5014636;28;20797;-85
2023/10/31 00:35:16;;;;;;;1.00;0.80;;;20.90;82.50;;;;;;5014451;28;20438;-85
2023/10/31 00:37:44;;;;;;;1.33;1.10;;;20.90;82.50;;;;;;4997321;28;20459;-85
2023/10/31 00:40:11;;;;;;;1.07;0.90;;;20.90;82.60;;;;;;4994938;28;21028;-85
2023/10/31 00:42:40;;;;;;;1.10;0.80;;;20.90;82.60;;;;;;4993803;28;20941;-85
2023/10/31 00:45:08;;;;;;;1.67;0.80;;;20.90;82.40;;;;;;4994738;28;20451;-85
2023/10/31 00:47:35;;;;;;;1.50;0.90;;;20.90;82.40;;;;;;4994701;28;20519;-85
2023/10/31 00:50:01;;;;;;;1.20;0.97;;;20.80;82.30;;;;;;4994712;28;20464;-93
2023/10/31 00:52:28;;;;;;;1.30;0.90;;;21.00;82.50;;;;;;5009943;28;20445;-85
2023/10/31 00:54:56;;;;;;;1.77;0.90;;;20.80;82.30;;;;;;5014044;28;20475;-86
2023/10/31 00:57:23;;;;;;;1.10;0.80;;;20.80;82.30;;;;;;5014188;28;20442;-92
2023/10/31 00:59:50;;;;;;;1.10;0.80;;;20.90;82.40;;;;;;5013969;28;20494;-86
2023/10/31 01:02:17;;;;;;;1.20;0.87;;;20.80;82.40;;;;;;5008020;28;20485;-85
2023/10/31 01:04:43;;;;;;;1.30;0.90;;;20.80;82.30;;;;;;4994495;28;20437;-85
2023/10/31 01:07:12;;;;;;;1.30;0.97;;;20.90;82.30;;;;;;4994387;28;20440;-85
2023/10/31 01:09:39;;;;;;;1.10;1.00;;;20.80;82.20;;;;;;4994443;28;20510;-85
2023/10/31 01:12:10;;;;;;;2.80;1.00;;;20.80;82.20;;;;;;4994316;28;20443;-85
2023/10/31 01:14:36;;;;;;;1.00;0.77;;;20.80;82.20;;;;;;4994124;28;20519;-85
2023/10/31 01:17:03;;;;;;;1.30;0.80;;;20.80;82.20;;;;;;4994156;28;20458;-85
2023/10/31 01:19:30;;;;;;;2.37;0.77;;;20.80;82.10;;;;;;4994168;28;20483;-85
2023/10/31 01:21:57;;;;;;;1.77;0.80;;;20.80;82.20;;;;;;4995020;28;20452;-85
2023/10/31 01:24:24;;;;;;;1.00;0.70;;;20.80;82.10;;;;;;4996423;28;20447;-85
2023/10/31 01:26:51;;;;;;;1.20;0.80;;;20.80;82.10;;;;;;5013801;28;20450;-85
2023/10/31 01:29:19;;;;;;;1.53;1.00;;;20.80;82.10;;;;;;5013649;28;20441;-95
2023/10/31 01:31:46;;;;;;;2.13;0.80;;;20.90;82.20;;;;;;5013647;28;20447;-85
2023/10/31 01:34:12;;;;;;;1.20;0.90;;;20.80;82.00;;;;;;4996463;28;20443;-85
2023/10/31 01:36:39;;;;;;;0.97;0.70;;;20.80;82.00;;;;;;4994133;28;20440;-85
2023/10/31 01:39:07;;;;;;;1.10;0.90;;;20.80;82.00;;;;;;4993805;28;20490;-85
2023/10/31 01:41:34;;;;;;;1.00;0.90;;;20.80;81.90;;;;;;4993905;28;20494;-85
2023/10/31 01:44:01;;;;;;;1.00;0.73;;;20.80;81.90;;;;;;4993735;28;20947;-85
2023/10/31 01:46:29;;;;;;;1.10;0.80;;;20.80;81.90;;;;;;4993890;28;20439;-85
2023/10/31 01:48:55;;;;;;;1.00;0.70;;;20.80;81.90;;;;;;5008245;28;20458;-85
2023/10/31 01:51:22;;;;;;;1.10;0.90;;;20.80;81.90;;;;;;5013417;28;20446;-85
2023/10/31 01:53:49;;;;;;;2.03;0.90;;;20.70;81.80;;;;;;5013082;28;20481;-85
2023/10/31 01:56:16;;;;;;;1.00;0.70;;;20.70;81.80;;;;;;5013315;28;20439;-85
2023/10/31 01:58:43;;;;;;;1.00;0.70;;;20.70;81.80;;;;;;5013308;28;20489;-86
2023/10/31 02:01:10;;;;;;;1.30;1.10;;;20.70;81.70;;;;;;5012924;28;20493;-94
2023/10/31 02:03:38;;;;;;;1.60;1.00;;;20.80;81.90;;;;;;5013292;28;20787;-85
2023/10/31 02:06:06;;;;;;;1.00;0.80;;;20.70;81.70;;;;;;5013284;28;20453;-85
2023/10/31 02:08:33;;;;;;;1.00;0.70;;;20.80;81.90;;;;;;5001059;28;20453;-85
2023/10/31 02:11:00;;;;;;;1.30;0.90;;;20.70;81.70;;;;;;5008512;28;20451;-85
2023/10/31 02:13:27;;;;;;;1.27;1.00;;;20.70;81.60;;;;;;4999634;28;20529;-85
2023/10/31 02:15:54;;;;;;;0.97;0.77;;;20.70;81.70;;;;;;5013228;28;20806;-95
2023/10/31 02:18:20;;;;;;;1.00;0.80;;;20.70;81.60;;;;;;5013128;28;20969;-85
2023/10/31 02:20:49;;;;;;;1.47;1.10;;;20.70;81.60;;;;;;5004409;28;20444;-85
2023/10/31 02:23:18;;;;;;;1.00;0.80;;;20.70;81.60;;;;;;4993482;28;20440;-85
2023/10/31 02:25:44;;;;;;;1.33;0.90;;;20.70;81.70;;;;;;4993578;28;20441;-85
2023/10/31 02:28:11;;;;;;;1.00;0.80;;;20.70;81.60;;;;;;4997416;28;20440;-85
2023/10/31 02:30:38;;;;;;;1.30;0.90;;;20.70;81.60;;;;;;4997361;28;20444;-85
2023/10/31 02:33:05;;;;;;;1.00;0.80;;;20.70;81.50;;;;;;4996932;28;20460;-85
2023/10/31 02:35:32;;;;;;;1.00;0.80;;;20.70;81.60;;;;;;5005779;28;20464;-85
2023/10/31 02:37:59;;;;;;;1.00;0.70;;;20.80;81.70;;;;;;5016880;28;20452;-85
2023/10/31 02:40:27;;;;;;;1.00;0.80;;;20.70;81.60;;;;;;5016474;28;20489;-85
2023/10/31 02:42:53;;;;;;;1.27;0.80;;;20.70;81.50;;;;;;4997984;28;20542;-85
2023/10/31 02:45:20;;;;;;;1.00;0.80;;;20.70;81.50;;;;;;4997016;28;20435;-85
2023/10/31 02:47:47;;;;;;;1.10;0.80;;;20.70;81.50;;;;;;5014559;28;20476;-86
2023/10/31 02:50:14;;;;;;;1.10;0.80;;;20.70;81.50;;;;;;5016613;28;20442;-85
2023/10/31 02:52:40;;;;;;;1.20;0.90;;;20.70;81.50;;;;;;4998309;28;20538;-86
2023/10/31 02:55:08;;;;;;;1.20;1.00;;;20.80;81.60;;;;;;4996682;28;20463;-93
2023/10/31 02:57:36;;;;;;;1.20;0.90;;;20.70;81.50;;;;;;4996866;28;20441;-95
2023/10/31 03:00:04;;;;;;;1.40;0.90;;;20.70;81.40;;;;;;4996621;28;20490;-85
2023/10/31 03:02:31;;;;;;;1.20;0.80;;;20.70;81.50;;;;;;4996891;28;20446;-94
2023/10/31 03:04:57;;;;;;;1.67;0.83;;;20.70;81.40;;;;;;4996742;28;20445;-85
2023/10/31 03:07:24;;;;;;;1.20;0.90;;;20.70;81.40;;;;;;4996696;28;20450;-85
2023/10/31 03:09:51;;;;;;;1.00;0.70;;;20.70;81.40;;;;;;4996304;28;20447;-94
2023/10/31 03:12:18;;;;;;;1.00;0.80;;;20.70;81.40;;;;;;5004150;28;20449;-85
2023/10/31 03:14:46;;;;;;;1.00;0.70;;;20.60;81.20;;;;;;4996617;28;20461;-85
2023/10/31 03:17:13;;;;;;;1.00;0.73;;;20.70;81.40;;;;;;4996359;28;20463;-86
2023/10/31 03:19:39;;;;;;;2.27;0.90;;;20.60;81.30;;;;;;5014446;28;20590;-85
2023/10/31 03:22:07;;;;;;;1.00;0.77;;;20.70;81.40;;;;;;5016042;28;20446;-85
2023/10/31 03:24:33;;;;;;;1.00;0.80;;;20.70;81.40;;;;;;5015856;28;20804;-95
2023/10/31 03:27:00;;;;;;;1.47;0.93;;;20.60;81.20;;;;;;5015839;28;20537;-85
2023/10/31 03:29:27;;;;;;;1.00;0.70;;;20.70;81.40;;;;;;5008880;28;20799;-85
2023/10/31 03:31:55;;;;;;;1.00;0.63;;;20.70;82.20;;;;;;4996215;28;20446;-85
2023/10/31 03:34:22;;;;;;;1.30;0.80;;;20.60;81.20;;;;;;4995975;28;20863;-93
2023/10/31 03:36:49;;;;;;;1.10;0.80;;;20.70;81.30;;;;;;4996054;28;20453;-85
2023/10/31 03:39:15;;;;;;;1.10;1.00;;;20.60;81.20;;;;;;4995961;28;20486;-95
2023/10/31 03:41:42;;;;;;;1.00;0.73;;;20.60;81.20;;;;;;4995955;28;20443;-85
2023/10/31 03:44:09;;;;;;;1.00;0.80;;;20.60;81.20;;;;;;4995884;28;20451;-85
2023/10/31 03:46:36;;;;;;;1.20;1.00;;;20.60;81.20;;;;;;4995973;28;20444;-94
2023/10/31 03:49:07;;;;;;;1.10;0.97;;;20.60;81.20;;;;;;4995975;28;20472;-85
2023/10/31 03:51:34;;;;;;;1.10;0.80;;;20.60;81.20;;;;;;4995934;28;20455;-85
2023/10/31 03:54:01;;;;;;;1.10;0.80;;;20.60;81.20;;;;;;5008084;28;20574;-85
2023/10/31 03:56:27;;;;;;;1.10;0.80;;;20.60;81.10;;;;;;5015486;28;20533;-85
2023/10/31 03:58:54;;;;;;;1.00;0.73;;;20.60;81.20;;;;;;5015209;28;20442;-85
2023/10/31 04:01:21;;;;;;;1.10;0.80;;;20.60;81.10;;;;;;5015060;28;20466;-85
2023/10/31 04:03:48;;;;;;;1.00;0.80;;;20.60;81.20;;;;;;5015059;28;20448;-85
2023/10/31 04:06:16;;;;;;;1.40;1.10;;;20.60;81.20;;;;;;5015097;28;20442;-85
2023/10/31 04:08:43;;;;;;;1.00;0.80;;;20.60;81.10;;;;;;4997023;28;20454;-86
2023/10/31 04:11:09;;;;;;;1.10;1.00;;;20.60;81.10;;;;;;5004559;28;20955;-85
2023/10/31 04:13:36;;;;;;;1.20;0.93;;;20.60;81.10;;;;;;5002296;28;20474;-85
2023/10/31 04:16:04;;;;;;;1.07;0.80;;;20.60;81.10;;;;;;4994830;28;20533;-85
2023/10/31 04:18:30;;;;;;;1.20;0.97;;;20.60;81.10;;;;;;4993534;28;20978;-85
2023/10/31 04:20:57;;;;;;;1.00;0.77;;;20.60;81.10;;;;;;4994500;28;20487;-85
2023/10/31 04:23:25;;;;;;;1.10;0.90;;;20.60;81.10;;;;;;4994934;28;20516;-94
2023/10/31 04:25:53;;;;;;;1.00;0.80;;;20.60;81.00;;;;;;4995218;28;20534;-85
2023/10/31 04:28:20;;;;;;;1.10;0.97;;;20.60;81.10;;;;;;4995231;28;20780;-85
2023/10/31 04:30:46;;;;;;;1.00;0.80;;;20.60;81.10;;;;;;4996659;28;20444;-85
2023/10/31 04:33:13;;;;;;;1.10;0.80;;;20.60;81.10;;;;;;5014665;28;20445;-85
2023/10/31 04:35:40;;;;;;;1.23;0.90;;;20.60;81.10;;;;;;5014615;28;20434;-85
2023/10/31 04:38:07;;;;;;;1.10;0.80;;;20.60;81.10;;;;;;5009367;28;20945;-85
2023/10/31 04:40:35;;;;;;;1.27;0.90;;;20.50;81.00;;;;;;5014390;28;20493;-86
2023/10/31 04:43:02;;;;;;;2.93;0.80;;;20.60;81.10;;;;;;4993668;28;20431;-84
2023/10/31 04:45:29;;;;;;;2.80;1.00;;;20.60;81.00;;;;;;5008329;28;20435;-85
2023/10/31 04:47:56;;;;;;;1.20;0.80;;;20.60;81.00;;;;;;5013639;28;20451;-84
2023/10/31 04:50:23;;;;;;;1.20;1.07;;;20.60;81.00;;;;;;5013026;28;20461;-94
2023/10/31 04:52:50;;;;;;;1.10;0.90;;;20.60;81.10;;;;;;5013686;28;20441;-85
2023/10/31 04:55:16;;;;;;;1.20;1.00;;;20.50;80.90;;;;;;5014105;28;20434;-84
2023/10/31 04:57:44;;;;;;;1.10;0.83;;;20.50;80.90;;;;;;5013547;28;20437;-89
2023/10/31 05:00:12;;;;;;;1.30;1.10;;;20.60;81.00;;;;;;5031123;28;20562;-84
2023/10/31 05:02:39;;;;;;;1.30;0.90;;;20.60;81.00;;;;;;5014562;28;20468;-85
2023/10/31 05:05:06;;;;;;;0.97;0.80;;;20.60;81.00;;;;;;5005421;28;20808;-88
2023/10/31 05:07:33;;;;;;;1.00;0.80;;;20.50;80.90;;;;;;5033963;28;20512;-85
2023/10/31 05:10:00;;;;;;;1.23;0.80;;;20.60;81.00;;;;;;5014900;28;20945;-85
2023/10/31 05:12:27;;;;;;;1.20;1.10;;;20.60;81.00;;;;;;5012399;28;20525;-85
2023/10/31 05:14:55;;;;;;;1.20;0.90;;;20.60;80.90;;;;;;5013543;28;20457;-87
2023/10/31 05:17:22;;;;;;;1.30;0.97;;;20.50;80.90;;;;;;5014029;28;20848;-89
2023/10/31 05:19:49;;;;;;;5.00;1.00;;;20.50;81.10;;;;;;5013676;28;20549;-89
2023/10/31 05:22:16;;;;;;;1.10;1.00;;;20.50;81.00;;;;;;5013714;28;20498;-88
2023/10/31 05:24:43;;;;;;;1.13;1.00;;;20.50;81.00;;;;;;5013818;28;20522;-88
2023/10/31 05:27:10;;;;;;;1.00;0.80;;;20.60;81.10;;;;;;5013792;28;20515;-88
2023/10/31 05:29:39;;;;;;;1.30;1.00;;;20.60;81.20;;;;;;5000255;28;20455;-91
2023/10/31 05:32:07;;;;;;;1.20;1.00;;;20.60;81.10;;;;;;5001382;28;20439;-88
2023/10/31 05:34:34;;;;;;;1.20;0.90;;;20.60;81.30;;;;;;4993641;28;20451;-94
2023/10/31 05:37:01;;;;;;;1.10;0.80;;;20.60;81.40;;;;;;4994940;28;20538;-88
2023/10/31 05:39:27;;;;;;;2.90;1.30;;;20.60;81.70;;;;;;4993769;28;20441;-89
2023/10/31 05:41:54;;;;;;;1.10;1.00;;;20.60;81.80;;;;;;4993857;28;20440;-94
2023/10/31 05:44:21;;;;;;;2.37;0.90;;;20.60;81.90;;;;;;4994055;28;20447;-88
2023/10/31 05:46:48;;;;;;;1.93;0.90;;;20.60;81.90;;;;;;4993872;28;20444;-89
2023/10/31 05:49:16;;;;;;;2.30;1.23;;;20.60;81.90;;;;;;4993918;28;20457;-89
2023/10/31 05:51:43;;;;;;;1.80;1.00;;;20.60;82.00;;;;;;4993793;28;20458;-88
2023/10/31 05:54:10;;;;;;;1.50;1.00;;;20.60;82.00;;;;;;4993694;28;20479;-89
2023/10/31 05:56:37;;;;;;;1.53;1.00;;;20.60;82.10;;;;;;4993837;28;20972;-88
2023/10/31 05:59:04;;;;;;;2.07;1.50;;;20.60;82.20;;;;;;4993836;28;20570;-89
2023/10/31 06:01:30;;;;;;;2.90;1.97;;;20.60;82.20;;;;;;4994846;28;20496;-88
2023/10/31 06:03:57;;;;;;;1.70;1.60;;;20.60;82.30;;;;;;4997427;28;20454;-89
2023/10/31 06:06:25;;;;;;;2.07;1.47;;;20.60;82.40;;;;;;4997710;28;20953;-94
2023/10/31 06:08:52;;;;;;;3.43;1.83;;;20.60;82.30;;;;;;4997648;28;20451;-88
2023/10/31 06:11:19;;;;;;;2.03;1.67;;;20.60;82.10;;;;;;4997715;28;20938;-88
2023/10/31 06:13:47;;;;;;;2.03;1.57;;;20.60;82.20;;;;;;4997278;28;20540;-88
2023/10/31 06:16:14;;;;;;;1.40;1.20;;;20.60;82.30;;;;;;5002962;28;20450;-88
2023/10/31 06:18:41;;;;;;;1.30;1.10;;;20.60;82.40;;;;;;5016885;28;20469;-92
2023/10/31 06:21:09;;;;;;;1.60;1.23;;;20.60;82.40;;;;;;5014142;28;20487;-88
2023/10/31 06:23:38;;;;;;;2.60;1.60;;;20.70;82.40;;;;;;5014126;28;20925;-88
2023/10/31 06:26:05;;;;;;;1.80;1.50;;;20.60;82.20;;;;;;5014842;28;20448;-88
2023/10/31 06:28:34;;;;;;;2.43;1.40;;;20.60;82.20;;;;;;5015546;28;20440;-93
2023/10/31 06:31:01;;;;;;;1.50;1.20;;;20.60;82.30;;;;;;5015274;28;20450;-88
2023/10/31 06:33:28;;;;;;;2.20;1.27;;;20.60;82.10;;;;;;5015254;28;20448;-89
2023/10/31 06:35:54;;;;;;;2.20;1.43;;;20.70;82.40;;;;;;5016737;28;20949;-87
2023/10/31 06:38:21;;;;;;;2.60;1.60;;;20.60;82.20;;;;;;5016722;28;20542;-89
2023/10/31 06:40:49;;;;;;;2.97;1.43;;;20.60;82.20;;;;;;5015820;28;20489;-88
2023/10/31 06:43:16;;;;;;;2.20;1.60;;;20.60;82.30;;;;;;5015871;28;20833;-88
2023/10/31 06:45:43;;;;;;;1.87;1.50;;;20.60;82.20;;;;;;5016178;28;20456;-88
2023/10/31 06:48:10;;;;;;;2.10;1.40;;;20.70;82.30;;;;;;5017312;28;20466;-93
2023/10/31 06:50:37;;;;;;;2.53;1.47;;;20.60;82.30;;;;;;5016624;28;20448;-91
2023/10/31 06:53:04;;;;;;;4.17;1.30;;;20.60;82.00;;;;;;5016438;28;20934;-94
2023/10/31 06:55:30;;;;;;;5.83;1.80;;;20.60;82.80;;;;;;5016778;28;20823;-91
2023/10/31 06:57:58;;;;;;;2.30;1.57;;;20.60;81.90;;;;;;5016572;28;20448;-94
2023/10/31 07:00:25;;;;;;;2.20;1.63;;;20.60;82.10;;;;;;5016559;28;20481;-94
2023/10/31 07:02:59;;;;;;;2.93;1.70;;;20.60;82.10;;;;;;5016430;28;20448;-94
2023/10/31 07:05:26;;;;;;;3.00;1.60;;;20.50;82.00;;;;;;5016570;28;20488;-90
2023/10/31 07:07:52;;;;;;;3.47;1.43;;;20.50;82.00;;;;;;5016516;28;20438;-91
2023/10/31 07:10:19;;;;;;;2.43;1.70;;;20.50;81.90;;;;;;5016571;28;20801;-90
2023/10/31 07:12:46;;;;;;;2.00;1.67;;;20.50;81.90;;;;;;5015936;28;20453;-91
2023/10/31 07:15:14;;;;;;;1.73;1.37;;;20.50;81.90;;;;;;5016347;28;20461;-91
2023/10/31 07:17:41;;;;;;;1.80;1.40;;;20.50;81.90;;;;;;5016210;28;20560;-93
2023/10/31 07:20:08;;;;;;;3.17;1.83;;;20.50;81.90;;;;;;5016168;28;20468;-93
2023/10/31 07:22:35;;;;;;;1.90;1.37;;;20.50;81.90;;;;;;5015980;28;20990;-93
2023/10/31 07:25:03;;;;;;;3.90;1.53;;;20.50;81.80;;;;;;5016144;28;20457;-93
2023/10/31 07:27:30;;;;;;;1.70;1.40;;;20.60;81.90;;;;;;5016143;28;20522;-93
2023/10/31 07:29:57;;;;;;;1.60;1.50;;;20.50;82.60;;;;;;5016267;28;20442;-93
2023/10/31 07:32:26;;;;;;;2.83;2.07;;;20.50;81.80;;;;;;5015986;28;20442;-93
2023/10/31 07:34:53;;;;;;;2.47;1.50;;;20.60;81.80;;;;;;5015943;28;20488;-91
2023/10/31 07:37:20;;;;;;;2.83;1.87;;;20.50;81.70;;;;;;5016087;28;20437;-93
2023/10/31 07:39:47;;;;;;;1.87;1.43;;;20.50;81.70;;;;;;5015925;28;20952;-93
2023/10/31 07:42:13;;;;;;;1.70;1.43;;;20.50;81.70;;;;;;5015889;28;20485;-93
2023/10/31 07:44:40;;;;;;;2.50;1.30;;;20.50;81.60;;;;;;5015757;28;20461;-93
2023/10/31 07:47:07;;;;;;;1.90;1.60;;;20.50;81.60;;;;;;5015957;28;20464;-93
2023/10/31 07:49:35;;;;;;;2.13;1.40;;;20.50;81.70;;;;;;5015934;28;20443;-93
2023/10/31 07:52:02;;;;;;;1.70;1.30;;;20.50;81.70;;;;;;5015656;28;20465;-93
2023/10/31 07:54:29;;;;;;;2.23;1.30;;;20.60;81.70;;;;;;5015566;28;20474;-93
2023/10/31 07:56:55;;;;;;;1.93;1.27;;;20.50;81.60;;;;;;5015646;28;20438;-93
2023/10/31 07:59:22;;;;;;;2.77;1.40;;;20.50;81.50;;;;;;5015520;28;20446;-93
2023/10/31 08:01:52;;;;;;;1.50;1.40;;;20.60;81.70;;;;;;5015250;28;20573;-94
2023/10/31 08:04:18;;;;;;;2.70;1.33;;;20.50;81.50;;;;;;5015571;28;20442;-94
2023/10/31 08:06:46;;;;;;;1.63;1.40;;;20.60;81.70;;;;;;5015494;28;20540;-91
2023/10/31 08:09:13;;;;;;;2.20;1.70;;;20.50;81.50;;;;;;5015415;28;20954;-93
2023/10/31 08:11:40;;;;;;;3.13;1.47;;;20.50;81.40;;;;;;5015808;28;20478;-94
2023/10/31 08:14:07;;;;;;;2.07;1.57;;;20.50;81.40;;;;;;5011991;28;20977;-91
2023/10/31 08:16:34;;;;;;;1.97;1.30;;;20.50;81.40;;;;;;4995833;28;20535;-94
2023/10/31 08:19:01;;;;;;;2.13;1.57;;;20.60;81.40;;;;;;4995463;28;20490;-94
2023/10/31 08:21:33;;;;;;;2.57;1.37;;;20.60;81.20;;;;;;4995459;28;20489;-94
2023/10/31 08:24:01;;;;;;;1.97;1.30;;;20.60;81.40;;;;;;4995270;28;20510;-94
2023/10/31 08:26:28;;;;;;;2.07;1.43;;;20.50;81.40;;;;;;4995454;28;20449;-94
2023/10/31 08:28:55;;;;;;;2.40;1.20;;;20.60;81.40;;;;;;4995767;28;20805;-94
2023/10/31 08:31:22;;;;;;;2.67;1.53;;;20.60;81.50;;;;;;4996371;28;20470;-94
2023/10/31 08:33:48;;;;;;;2.30;1.50;;;20.60;81.40;;;;;;4995479;28;20449;-91
2023/10/31 08:36:15;;;;;;;6.60;1.60;;;20.60;81.30;;;;;;4995296;28;20461;-93
2023/10/31 08:38:42;;;;;;;1.53;1.40;;;20.50;81.30;;;;;;4995148;28;20452;-94
2023/10/31 08:41:10;;;;;;;1.80;1.60;;;20.50;81.30;;;;;;4995292;28;20573;-94
2023/10/31 08:43:37;;;;;;;2.87;1.30;;;20.50;81.30;;;;;;4995019;28;20791;-94
2023/10/31 08:46:04;;;;;;;2.13;1.70;;;20.50;81.30;;;;;;4994848;28;20450;-93
2023/10/31 08:48:31;;;;;;;1.50;1.40;;;20.50;81.30;;;;;;4994961;28;20463;-95
2023/10/31 08:50:58;;;;;;;3.60;1.40;;;20.60;81.40;;;;;;4994923;28;20459;-94
2023/10/31 08:53:25;;;;;;;2.93;1.63;;;20.60;81.30;;;;;;4994889;28;20977;-93
2023/10/31 08:55:51;;;;;;;1.40;1.20;;;20.50;81.20;;;;;;4994916;28;20439;-94
2023/10/31 08:58:20;;;;;;;1.90;1.33;;;20.50;81.10;;;;;;4994976;28;20954;-94
2023/10/31 09:00:46;;;;;;;4.03;1.70;;;20.60;81.10;;;;;;4994974;28;20443;-95
2023/10/31 09:03:13;;;;;;;1.43;1.33;;;20.60;81.10;;;;;;4994961;28;20824;-94
2023/10/31 09:05:41;;;;;;;1.60;1.37;;;20.50;80.90;;;;;;4994828;28;20449;-91
2023/10/31 09:08:08;;;;;;;1.57;1.43;;;20.50;80.90;;;;;;4994962;28;20446;-94
2023/10/31 09:10:36;;;;;;;1.97;1.40;;;20.50;81.00;;;;;;4994728;28;20435;-94
2023/10/31 09:13:03;;;;;;;1.33;1.20;;;20.50;81.10;;;;;;4994733;28;20443;-92
2023/10/31 09:15:31;;;;;;;2.23;1.70;;;20.60;80.90;;;;;;4994757;28;20444;-94
2023/10/31 09:17:58;;;;;;;3.30;1.37;;;20.50;80.80;;;;;;4994359;28;20543;-93
2023/10/31 09:20:25;;;;;;;1.90;1.20;;;20.50;81.00;;;;;;4994517;28;20439;-92
2023/10/31 09:22:52;;;;;;;1.97;1.50;;;20.50;80.90;;;;;;4994395;28;20502;-91
2023/10/31 09:25:19;;;;;;;1.40;1.30;;;20.60;80.90;;;;;;4994250;28;20494;-93
2023/10/31 09:27:46;;;;;;;2.30;1.50;;;20.60;81.00;;;;;;4994485;28;20447;-93
2023/10/31 09:30:13;;;;;;;1.73;1.47;;;20.60;81.10;;;;;;4994390;28;20451;-92
2023/10/31 09:32:41;;;;;;;1.50;1.30;;;20.60;81.00;;;;;;4994461;28;20844;-93
2023/10/31 09:35:09;;;;;;;1.90;1.30;;;20.60;81.00;;;;;;4994276;28;20455;-94
2023/10/31 09:37:35;;;;;;;1.67;1.57;;;20.60;81.10;;;;;;5001040;28;20501;-91
2023/10/31 09:40:03;;;;;;;1.70;1.40;;;20.60;81.10;;;;;;5015096;28;20453;-89
2023/10/31 09:42:29;;;;;;;1.83;1.20;;;20.60;80.90;;;;;;5004101;28;20491;-95
2023/10/31 09:44:56;;;;;;;1.83;1.73;;;20.60;81.00;;;;;;4995437;28;20444;-95
2023/10/31 09:47:23;;;;;;;1.30;1.17;;;20.60;80.90;;;;;;4995719;28;21040;-95
2023/10/31 09:49:52;;;;;;;1.63;1.33;;;20.60;80.90;;;;;;4996340;28;20444;-95
2023/10/31 09:52:20;;;;;;;3.03;1.60;;;20.60;80.90;;;;;;4996262;28;20438;-95
2023/10/31 09:54:48;;;;;;;1.57;1.47;;;20.60;80.90;;;;;;4995971;28;20473;-95
2023/10/31 09:57:17;;;;;;;1.93;1.30;;;20.70;80.60;;;;;;4996323;28;20454;-92
2023/10/31 09:59:43;;;;;;;1.60;1.50;;;20.70;80.40;;;;;;4995297;28;20446;-95
2023/10/31 10:02:10;;;;;;;1.60;1.50;;;20.70;80.60;;;;;;4995196;28;20503;-95
2023/10/31 10:04:38;;;;;;;1.87;1.20;;;20.80;80.10;;;;;;4995634;28;20461;-96
2023/10/31 10:07:07;;;;;;;4.50;1.70;;;20.80;80.00;;;;;;4996336;28;20452;-96
2023/10/31 10:09:33;;;;;;;1.50;1.37;;;20.90;80.20;;;;;;4996218;28;20465;-95
2023/10/31 10:12:01;;;;;;;1.97;1.33;;;20.80;80.30;;;;;;4995397;28;20886;-95
2023/10/31 10:14:31;;;;;;;1.70;1.43;;;20.80;80.30;;;;;;5000308;28;20801;-95
2023/10/31 10:16:58;;;;;;;2.27;1.80;;;20.80;80.40;;;;;;4995062;28;20463;-96
2023/10/31 10:19:25;;;;;;;1.90;1.20;;;20.80;79.70;;;;;;5007019;28;20830;-94
2023/10/31 10:22:15;;;;;;;1.30;1.20;;;20.80;80.00;;;;;;5024604;28;20498;-94
2023/10/31 10:24:46;;;;;;;1.50;1.40;;;20.70;80.40;;;;;;5030440;28;20441;-96
2023/10/31 10:27:17;;;;;;;1.87;1.63;;;20.70;80.40;;;;;;5030148;28;20438;-96
2023/10/31 10:29:46;;;;;;;1.30;1.20;;;20.70;80.40;;;;;;5012802;28;20474;-96
2023/10/31 10:32:17;;;;;;;1.30;1.20;;;20.70;80.50;;;;;;5030122;28;20434;-96
2023/10/31 10:35:12;;;;;;;2.73;1.60;;;20.70;80.60;;;;;;5029439;28;20504;-96
2023/10/31 10:37:41;;;;;;;1.53;1.43;;;20.70;80.70;;;;;;5029819;28;20545;-96
2023/10/31 10:40:12;;;;;;;1.77;1.67;;;20.70;80.70;;;;;;5028258;28;20446;-96
2023/10/31 10:42:46;;;;;;;1.77;1.67;;;20.70;80.90;;;;;;5042659;23;21009;-96
2023/10/31 10:45:15;;;;;;;1.57;1.37;;;20.70;80.80;;;;;;5065813;28;20538;-96
2023/10/31 10:47:47;;;;;;;2.70;1.40;;;20.70;80.80;;;;;;5051678;28;20469;-92
2023/10/31 10:50:15;;;;;;;1.30;1.20;;;20.70;80.90;;;;;;5069396;28;20457;-96
2023/10/31 10:52:50;;;;;;;1.50;1.40;;;20.70;80.80;;;;;;5067662;28;20456;-96
2023/10/31 10:55:23;;;;;;;1.70;1.60;;;20.70;80.90;;;;;;5066247;28;20449;-96
2023/10/31 10:57:57;;;;;;;1.30;1.17;;;20.70;80.60;;;;;;5068227;28;20433;-96
2023/10/31 11:00:26;;;;;;;1.80;1.40;;;20.70;80.20;;;;;;5059725;28;20511;-93
2023/10/31 11:02:56;;;;;;;1.60;1.27;;;20.80;80.50;;;;;;5064363;28;20545;-95
2023/10/31 11:05:27;;;;;;;1.40;1.20;;;20.70;80.40;;;;;;5069391;28;20451;-96
2023/10/31 11:07:58;;;;;;;1.90;1.40;;;20.70;80.40;;;;;;5060277;28;20433;-96
2023/10/31 11:10:28;;;;;;;1.50;1.40;;;20.70;80.30;;;;;;5060445;28;20460;-96
2023/10/31 11:12:56;;;;;;;1.60;1.37;;;20.80;80.50;;;;;;5038984;28;20436;-96
2023/10/31 11:15:24;;;;;;;1.77;1.40;;;20.80;80.50;;;;;;5039823;28;20471;-94
2023/10/31 11:17:52;;;;;;;1.63;1.53;;;20.80;80.70;;;;;;5039933;28;20552;-96
2023/10/31 11:20:20;;;;;;;1.60;1.40;;;20.70;80.60;;;;;;5038918;28;20452;-91
2023/10/31 11:22:51;;;;;;;1.60;1.30;;;20.80;80.70;;;;;;5052163;28;20847;-89
2023/10/31 11:25:22;;;;;;;3.43;1.10;;;20.70;80.40;;;;;;5055066;28;20561;-89
2023/10/31 11:27:51;;;;;;;1.40;1.30;;;20.70;80.60;;;;;;5034550;28;20444;-90
2023/10/31 11:30:28;;;;;;;2.80;1.57;;;20.70;80.80;;;;;;5034509;28;20442;-90
2023/10/31 11:32:56;;;;;;;2.10;1.47;;;20.70;80.90;;;;;;5034199;28;20453;-90
2023/10/31 11:35:23;;;;;;;1.40;1.30;;;20.70;80.80;;;;;;5033520;28;20445;-90
2023/10/31 11:37:50;;;;;;;1.90;1.40;;;20.70;81.00;;;;;;5033646;28;20449;-90
2023/10/31 11:40:21;;;;;;;2.57;1.67;;;20.70;80.90;;;;;;5033618;28;20445;-89
2023/10/31 11:42:50;;;;;;;1.50;1.37;;;20.70;81.00;;;;;;5033405;28;20512;-90
2023/10/31 11:45:28;;;;;;;1.40;1.30;;;20.80;81.00;;;;;;5034332;28;21012;-90
2023/10/31 11:47:56;;;;;;;2.30;1.50;;;20.70;80.90;;;;;;5034843;28;20469;-90
2023/10/31 11:50:23;;;;;;;2.23;1.27;;;20.70;80.90;;;;;;5035281;28;20442;-90
2023/10/31 11:53:11;;;;;;;1.73;1.60;;;20.70;80.90;;;;;;5035182;28;20932;-92
2023/10/31 11:55:41;;;;;;;1.60;1.50;;;20.70;80.80;;;;;;5035452;28;20449;-90
2023/10/31 11:58:19;;;;;;;1.47;1.37;;;20.70;80.70;;;;;;5035526;28;20536;-90
2023/10/31 12:00:49;;;;;;;1.40;1.27;;;20.70;80.70;;;;;;5035078;28;20984;-90
2023/10/31 12:03:17;;;;;;;1.87;1.20;;;20.70;80.80;;;;;;5035040;28;20841;-90
2023/10/31 12:05:53;;;;;;;1.30;1.20;;;20.70;80.70;;;;;;5035024;28;20528;-89
2023/10/31 12:08:26;;;;;;;1.70;1.40;;;20.70;80.80;;;;;;5035291;28;20452;-90
2023/10/31 12:10:53;;;;;;;1.50;1.27;;;20.70;80.70;;;;;;5035036;28;20442;-90
2023/10/31 12:13:20;;;;;;;1.53;1.17;;;20.70;80.70;;;;;;5034850;28;20859;-90
2023/10/31 12:15:54;;;;;;;2.83;1.67;;;20.70;80.70;;;;;;5034897;28;20539;-90
2023/10/31 12:18:21;;;;;;;1.50;1.40;;;20.70;80.50;;;;;;5034829;28;20468;-90
2023/10/31 12:20:49;;;;;;;3.87;1.23;;;20.70;80.60;;;;;;5034734;28;20447;-90
2023/10/31 12:23:16;;;;;;;1.33;1.23;;;20.70;80.60;;;;;;5034595;28;20500;-90
2023/10/31 12:25:47;;;;;;;1.60;1.40;;;20.70;80.60;;;;;;5034631;28;20469;-89
2023/10/31 12:28:18;;;;;;;1.40;1.30;;;20.70;80.90;;;;;;5034632;28;20800;-90
2023/10/31 12:30:47;;;;;;;1.40;1.30;;;20.70;80.90;;;;;;5034638;28;20437;-90
2023/10/31 12:33:16;;;;;;;4.50;1.20;;;20.70;81.50;;;;;;5034253;28;20446;-90
2023/10/31 12:35:43;;;;;;;1.20;1.10;;;20.70;80.70;;;;;;5034452;28;20459;-90
2023/10/31 12:38:12;;;;;;;1.40;1.30;;;20.70;80.60;;;;;;5034489;28;21012;-90
2023/10/31 12:40:40;;;;;;;1.37;1.27;;;20.70;80.60;;;;;;5034348;28;20777;-89
2023/10/31 12:43:07;;;;;;;1.60;1.50;;;20.70;80.40;;;;;;5033931;28;20523;-90
2023/10/31 12:45:34;;;;;;;1.80;1.70;;;20.70;80.50;;;;;;5034117;28;20525;-90
2023/10/31 12:48:02;;;;;;;4.40;1.30;;;20.70;80.50;;;;;;5034085;28;20464;-94
2023/10/31 12:50:31;;;;;;;1.30;1.10;;;20.70;80.60;;;;;;5034193;28;20441;-90